Time;durP1;ratioP1;P1;durP2;ratioP2;P2;SDS_P1;SDS_P2;PMS_P1;PMS_P2;Temp;Humidity;BMP_temperature;BMP_pressure;BME280_temperature;BME280_humidity;BME280_pressure;Samples;Min_cycle;Max_cycle;Signal;HPM_P1;HPM_P2
2021/06/25 00:00:57;;;;;;;3.40;2.55;;;;;;;;;;5095757;28;20103;-60
2021/06/25 00:03:23;;;;;;;3.33;2.58;;;;;;;;;;5095633;28;20028;-58
2021/06/25 00:05:49;;;;;;;3.08;2.20;;;;;;;;;;5095810;28;20024;-57
2021/06/25 00:08:15;;;;;;;2.95;2.00;;;;;;;;;;5095533;28;20030;-58
2021/06/25 00:10:41;;;;;;;3.08;1.67;;;;;;;;;;5096299;28;20128;-57
2021/06/25 00:13:07;;;;;;;3.60;2.58;;;;;;;;;;5096187;28;20412;-58
2021/06/25 00:15:37;;;;;;;2.80;2.00;;;;;;;;;;5095981;28;20024;-57
2021/06/25 00:18:03;;;;;;;3.50;2.78;;;;;;;;;;5095702;28;20365;-57
2021/06/25 00:20:29;;;;;;;3.20;2.20;;;;;;;;;;5095579;28;20020;-57
2021/06/25 00:22:56;;;;;;;2.97;1.92;;;;;;;;;;5096332;28;20028;-57
2021/06/25 00:25:22;;;;;;;2.88;2.17;;;;;;;;;;5095475;28;20036;-57
2021/06/25 00:27:48;;;;;;;4.47;2.13;;;;;;;;;;5095377;28;20024;-57
2021/06/25 00:30:15;;;;;;;2.63;1.70;;;;;;;;;;5094963;28;20035;-57
2021/06/25 00:32:42;;;;;;;3.17;2.13;;;;;;;;;;5095785;28;20093;-57
2021/06/25 00:35:08;;;;;;;2.95;2.17;;;;;;;;;;5095230;28;20077;-57
2021/06/25 00:37:34;;;;;;;4.03;2.50;;;;;;;;;;5095360;28;20020;-57
2021/06/25 00:40:00;;;;;;;3.20;2.28;;;;;;;;;;5095059;28;20374;-57
2021/06/25 00:42:29;;;;;;;3.17;2.08;;;;;;;;;;5095238;28;20024;-57
2021/06/25 00:44:55;;;;;;;2.58;1.98;;;;;;;;;;5077664;28;20418;-57
2021/06/25 00:47:21;;;;;;;6.25;2.50;;;;;;;;;;5095702;28;20442;-57
2021/06/25 00:49:47;;;;;;;3.10;2.25;;;;;;;;;;5095477;28;20370;-57
2021/06/25 00:52:20;;;;;;;3.35;2.22;;;;;;;;;;5095233;28;20370;-57
2021/06/25 00:54:46;;;;;;;3.58;1.88;;;;;;;;;;5094868;28;20064;-57
2021/06/25 00:57:13;;;;;;;3.55;1.98;;;;;;;;;;5094894;28;20024;-57
2021/06/25 00:59:39;;;;;;;2.80;1.73;;;;;;;;;;5094782;28;20035;-57
2021/06/25 01:02:06;;;;;;;4.82;2.03;;;;;;;;;;5095340;28;20048;-57
2021/06/25 01:04:32;;;;;;;2.60;1.83;;;;;;;;;;5095260;28;20028;-57
2021/06/25 01:06:58;;;;;;;2.50;1.40;;;;;;;;;;5094728;28;20371;-57
2021/06/25 01:09:25;;;;;;;2.15;1.25;;;;;;;;;;5094783;28;20054;-57
2021/06/25 01:11:51;;;;;;;2.67;1.60;;;;;;;;;;5094285;28;20020;-57
2021/06/25 01:14:20;;;;;;;2.45;1.42;;;;;;;;;;5095010;28;20407;-58
2021/06/25 01:16:46;;;;;;;1.98;1.23;;;;;;;;;;5095338;28;20053;-57
2021/06/25 01:19:13;;;;;;;2.15;1.30;;;;;;;;;;5094750;28;20024;-57
2021/06/25 01:21:39;;;;;;;3.17;1.50;;;;;;;;;;5095049;28;20027;-57
2021/06/25 01:24:05;;;;;;;2.42;1.98;;;;;;;;;;5094087;28;20462;-57
2021/06/25 01:26:31;;;;;;;2.10;1.40;;;;;;;;;;5094026;28;20028;-57
2021/06/25 01:28:57;;;;;;;2.72;1.48;;;;;;;;;;5094386;28;20028;-57
2021/06/25 01:31:23;;;;;;;2.42;1.50;;;;;;;;;;5094874;28;20063;-57
2021/06/25 01:33:50;;;;;;;2.35;1.50;;;;;;;;;;5094150;28;20059;-57
2021/06/25 01:36:17;;;;;;;1.98;1.25;;;;;;;;;;5094232;28;20028;-57
2021/06/25 01:38:45;;;;;;;1.90;1.13;;;;;;;;;;5094167;28;20081;-57
2021/06/25 01:41:10;;;;;;;1.70;0.85;;;;;;;;;;5094196;28;20035;-57
2021/06/25 01:43:39;;;;;;;1.88;1.00;;;;;;;;;;5092675;28;20470;-57
2021/06/25 01:46:07;;;;;;;3.42;1.63;;;;;;;;;;5094040;28;20117;-57
2021/06/25 01:48:34;;;;;;;2.08;1.08;;;;;;;;;;5094055;28;20101;-57
2021/06/25 01:51:00;;;;;;;1.73;0.73;;;;;;;;;;5094558;28;20020;-57
2021/06/25 01:53:26;;;;;;;1.85;0.98;;;;;;;;;;5094088;28;20032;-57
2021/06/25 01:55:52;;;;;;;1.15;0.80;;;;;;;;;;5094301;28;20044;-57
2021/06/25 01:58:25;;;;;;;1.95;0.88;;;;;;;;;;5094400;28;20028;-57
2021/06/25 02:00:57;;;;;;;2.00;0.85;;;;;;;;;;5094099;28;20036;-57
2021/06/25 02:03:23;;;;;;;0.95;0.47;;;;;;;;;;5093877;28;20364;-57
2021/06/25 02:05:49;;;;;;;1.70;1.00;;;;;;;;;;5093575;28;20210;-57
2021/06/25 02:08:15;;;;;;;3.78;0.88;;;;;;;;;;5093535;28;20160;-57
2021/06/25 02:10:42;;;;;;;1.75;0.77;;;;;;;;;;5094281;28;20024;-57
2021/06/25 02:13:08;;;;;;;1.35;0.75;;;;;;;;;;5094229;28;20400;-57
2021/06/25 02:15:37;;;;;;;3.05;1.42;;;;;;;;;;5093715;28;20134;-57
2021/06/25 02:18:03;;;;;;;1.38;0.85;;;;;;;;;;5093985;28;20059;-57
2021/06/25 02:20:29;;;;;;;1.75;1.00;;;;;;;;;;5093597;28;20024;-57
2021/06/25 02:22:55;;;;;;;1.95;1.20;;;;;;;;;;5095338;28;20021;-57
2021/06/25 02:25:21;;;;;;;2.13;1.25;;;;;;;;;;5098426;28;20067;-57
2021/06/25 02:27:47;;;;;;;2.58;1.15;;;;;;;;;;5098204;28;20021;-57
2021/06/25 02:30:17;;;;;;;2.20;1.38;;;;;;;;;;5097799;28;20046;-57
2021/06/25 02:32:44;;;;;;;1.80;1.15;;;;;;;;;;5097718;28;20024;-57
2021/06/25 02:35:13;;;;;;;2.30;1.17;;;;;;;;;;5098125;28;19958;-57
2021/06/25 02:37:39;;;;;;;1.77;0.90;;;;;;;;;;5097507;28;20027;-57
2021/06/25 02:40:08;;;;;;;1.98;1.20;;;;;;;;;;5097604;28;20020;-57
2021/06/25 02:42:36;;;;;;;2.08;1.35;;;;;;;;;;5097823;28;20369;-57
2021/06/25 02:45:04;;;;;;;2.20;1.35;;;;;;;;;;5097352;28;20369;-57
2021/06/25 02:47:30;;;;;;;2.20;1.40;;;;;;;;;;5097045;28;20080;-57
2021/06/25 02:49:56;;;;;;;2.17;1.50;;;;;;;;;;5097878;28;20145;-57
2021/06/25 02:52:22;;;;;;;2.47;1.80;;;;;;;;;;5097146;28;20016;-57
2021/06/25 02:54:48;;;;;;;2.78;1.67;;;;;;;;;;5096948;28;20037;-58
2021/06/25 02:57:14;;;;;;;2.67;1.63;;;;;;;;;;5097187;28;20035;-57
2021/06/25 02:59:40;;;;;;;3.22;1.98;;;;;;;;;;5097078;28;20453;-57
2021/06/25 03:02:06;;;;;;;2.38;1.63;;;;;;;;;;5097705;28;20020;-57
2021/06/25 03:04:32;;;;;;;2.67;1.65;;;;;;;;;;5095691;28;20051;-57
2021/06/25 03:06:58;;;;;;;2.42;1.48;;;;;;;;;;5096975;28;20063;-57
2021/06/25 03:09:24;;;;;;;2.30;1.50;;;;;;;;;;5096992;28;20048;-58
2021/06/25 03:11:50;;;;;;;2.50;1.63;;;;;;;;;;5096915;28;20480;-58
2021/06/25 03:14:16;;;;;;;2.88;1.63;;;;;;;;;;5096721;28;20054;-58
2021/06/25 03:16:43;;;;;;;3.67;2.03;;;;;;;;;;5096816;28;20093;-57
2021/06/25 03:19:09;;;;;;;3.53;2.50;;;;;;;;;;5096718;28;20024;-58
2021/06/25 03:21:35;;;;;;;3.85;2.53;;;;;;;;;;5097275;28;20460;-58
2021/06/25 03:24:01;;;;;;;2.90;2.13;;;;;;;;;;5096969;28;20036;-58
2021/06/25 03:26:27;;;;;;;2.72;2.03;;;;;;;;;;5096567;28;20028;-58
2021/06/25 03:28:53;;;;;;;3.22;2.10;;;;;;;;;;5096795;28;20024;-57
2021/06/25 03:31:21;;;;;;;3.22;2.25;;;;;;;;;;5095622;28;20118;-58
2021/06/25 03:33:47;;;;;;;2.33;1.75;;;;;;;;;;5096509;28;20067;-57
2021/06/25 03:36:13;;;;;;;3.00;2.38;;;;;;;;;;5095924;28;20416;-57
2021/06/25 03:38:39;;;;;;;2.13;1.45;;;;;;;;;;5096508;28;20059;-57
2021/06/25 03:41:05;;;;;;;3.22;1.67;;;;;;;;;;5095546;28;20519;-57
2021/06/25 03:43:31;;;;;;;2.75;1.55;;;;;;;;;;5096452;28;20028;-57
2021/06/25 03:45:57;;;;;;;2.85;1.40;;;;;;;;;;5096375;28;20035;-57
2021/06/25 03:48:23;;;;;;;2.65;1.88;;;;;;;;;;5096641;28;20052;-57
2021/06/25 03:50:49;;;;;;;3.33;1.92;;;;;;;;;;5096554;28;20024;-57
2021/06/25 03:53:15;;;;;;;2.85;1.52;;;;;;;;;;5096716;28;20446;-57
2021/06/25 03:58:26;;;;;;;3.05;1.92;;;;;;;;;;5096189;28;20035;-57
2021/06/25 04:00:52;;;;;;;3.10;1.98;;;;;;;;;;5096043;28;20103;-57
2021/06/25 04:03:18;;;;;;;3.10;1.65;;;;;;;;;;5096177;28;20063;-57
2021/06/25 04:05:44;;;;;;;3.17;1.65;;;;;;;;;;5095286;28;20020;-57
2021/06/25 04:08:10;;;;;;;2.20;1.67;;;;;;;;;;5096178;28;20335;-57
2021/06/25 04:10:36;;;;;;;2.20;1.60;;;;;;;;;;5094602;28;20016;-57
2021/06/25 04:13:02;;;;;;;3.33;1.90;;;;;;;;;;5096155;28;20031;-57
2021/06/25 04:15:28;;;;;;;4.30;1.92;;;;;;;;;;5096318;28;20036;-57
2021/06/25 04:17:56;;;;;;;3.42;2.17;;;;;;;;;;5095710;28;20032;-57
2021/06/25 04:20:22;;;;;;;2.88;2.00;;;;;;;;;;5095186;28;20042;-58
2021/06/25 04:22:48;;;;;;;4.63;2.22;;;;;;;;;;5095597;28;20039;-57
2021/06/25 04:25:14;;;;;;;3.30;2.28;;;;;;;;;;5095513;28;20024;-59
2021/06/25 04:27:40;;;;;;;3.63;2.78;;;;;;;;;;5095876;28;20031;-58
2021/06/25 04:30:10;;;;;;;2.90;2.03;;;;;;;;;;5095381;28;20032;-58
2021/06/25 04:32:36;;;;;;;2.47;1.92;;;;;;;;;;5096022;28;20055;-59
2021/06/25 04:35:02;;;;;;;3.78;2.50;;;;;;;;;;5095236;28;20068;-58
2021/06/25 04:37:28;;;;;;;3.00;2.05;;;;;;;;;;5094540;28;20060;-58
2021/06/25 04:39:54;;;;;;;4.57;1.90;;;;;;;;;;5095172;28;20076;-58
2021/06/25 04:42:20;;;;;;;2.58;1.95;;;;;;;;;;5095226;28;20046;-58
2021/06/25 04:44:46;;;;;;;2.55;1.65;;;;;;;;;;5093491;28;20028;-58
2021/06/25 04:47:12;;;;;;;2.83;2.40;;;;;;;;;;5094519;28;20020;-59
2021/06/25 04:49:39;;;;;;;2.92;2.53;;;;;;;;;;5095013;28;20462;-58
2021/06/25 04:52:05;;;;;;;2.97;1.90;;;;;;;;;;5094288;28;20025;-58
2021/06/25 04:54:32;;;;;;;2.72;1.90;;;;;;;;;;5094063;28;20031;-58
2021/06/25 04:56:57;;;;;;;4.10;2.13;;;;;;;;;;5094855;28;20039;-58
2021/06/25 04:59:24;;;;;;;5.28;1.95;;;;;;;;;;5094622;28;20028;-58
2021/06/25 05:01:50;;;;;;;3.17;2.22;;;;;;;;;;5094871;28;20024;-58
2021/06/25 05:04:16;;;;;;;3.30;2.67;;;;;;;;;;5094419;28;20027;-58
2021/06/25 05:06:42;;;;;;;3.13;2.35;;;;;;;;;;5094666;28;20020;-59
2021/06/25 05:09:11;;;;;;;4.30;2.60;;;;;;;;;;5094627;28;20059;-58
2021/06/25 05:11:37;;;;;;;6.07;2.90;;;;;;;;;;5094369;28;20587;-58
2021/06/25 05:14:05;;;;;;;3.80;2.13;;;;;;;;;;5094261;28;20020;-58
2021/06/25 05:16:31;;;;;;;4.25;2.22;;;;;;;;;;5094532;28;20039;-58
2021/06/25 05:18:57;;;;;;;4.60;1.75;;;;;;;;;;5094217;28;20024;-58
2021/06/25 05:21:23;;;;;;;3.53;1.73;;;;;;;;;;5095057;28;20016;-58
2021/06/25 05:23:49;;;;;;;2.33;1.30;;;;;;;;;;5094735;28;20035;-58
2021/06/25 05:26:15;;;;;;;3.80;2.05;;;;;;;;;;5094647;28;20036;-58
2021/06/25 05:28:41;;;;;;;2.38;1.67;;;;;;;;;;5094360;28;20032;-58
2021/06/25 05:31:07;;;;;;;2.22;1.63;;;;;;;;;;5094883;28;20462;-58
2021/06/25 05:33:33;;;;;;;6.05;1.98;;;;;;;;;;5094436;28;20039;-58
2021/06/25 05:35:59;;;;;;;2.67;1.95;;;;;;;;;;5094173;28;20473;-58
2021/06/25 05:38:25;;;;;;;2.63;1.65;;;;;;;;;;5076119;28;20135;-58
2021/06/25 05:40:52;;;;;;;3.55;2.10;;;;;;;;;;5094175;28;20182;-58
2021/06/25 05:43:18;;;;;;;2.88;2.15;;;;;;;;;;5094169;28;20401;-58
2021/06/25 05:45:44;;;;;;;2.42;1.38;;;;;;;;;;5094096;28;20063;-58
2021/06/25 05:48:10;;;;;;;2.22;1.55;;;;;;;;;;5093971;28;20035;-58
2021/06/25 05:50:37;;;;;;;2.58;1.52;;;;;;;;;;5094014;28;20032;-58
2021/06/25 05:53:04;;;;;;;7.45;1.70;;;;;;;;;;5094017;28;20035;-58
2021/06/25 05:55:30;;;;;;;1.67;0.90;;;;;;;;;;5093983;28;20085;-58
2021/06/25 05:57:56;;;;;;;1.70;1.20;;;;;;;;;;5093895;28;20459;-58
2021/06/25 06:00:24;;;;;;;3.55;1.13;;;;;;;;;;5094442;28;20366;-58
2021/06/25 06:02:50;;;;;;;3.00;1.40;;;;;;;;;;5093950;28;20099;-58
2021/06/25 06:05:16;;;;;;;1.42;0.60;;;;;;;;;;5094410;28;20067;-58
2021/06/25 06:07:43;;;;;;;1.08;0.60;;;;;;;;;;5093799;28;20485;-58
2021/06/25 06:10:09;;;;;;;1.60;0.90;;;;;;;;;;5093418;28;20051;-58
2021/06/25 06:12:36;;;;;;;1.45;0.90;;;;;;;;;;5094201;28;20170;-58
2021/06/25 06:15:02;;;;;;;1.52;0.80;;;;;;;;;;5094150;28;20032;-58
2021/06/25 06:17:28;;;;;;;1.65;0.70;;;;;;;;;;5092940;28;20091;-58
2021/06/25 06:19:55;;;;;;;2.58;1.27;;;;;;;;;;5093307;28;20024;-58
2021/06/25 06:35:53;;;;;;;1.88;1.23;;;;;;;;;;5093724;28;20119;-59
2021/06/25 06:38:20;;;;;;;2.05;1.25;;;;;;;;;;5093619;28;20500;-58
2021/06/25 06:40:46;;;;;;;1.60;0.90;;;;;;;;;;5094360;28;20032;-58
2021/06/25 06:43:12;;;;;;;2.15;1.30;;;;;;;;;;5093921;28;20046;-58
2021/06/25 06:45:38;;;;;;;2.55;1.05;;;;;;;;;;5093898;28;20028;-58
2021/06/25 06:48:04;;;;;;;1.92;1.30;;;;;;;;;;5093918;28;20039;-58
2021/06/25 06:50:31;;;;;;;2.13;1.00;;;;;;;;;;5093027;28;20111;-59
2021/06/25 06:52:57;;;;;;;1.77;1.05;;;;;;;;;;5093708;28;20024;-59
2021/06/25 06:55:23;;;;;;;1.10;0.70;;;;;;;;;;5093186;28;20105;-58
2021/06/25 06:57:50;;;;;;;1.63;0.93;;;;;;;;;;5093192;28;20042;-58
2021/06/25 07:00:16;;;;;;;2.00;0.88;;;;;;;;;;5093353;28;20032;-58
2021/06/25 07:02:43;;;;;;;2.15;1.13;;;;;;;;;;5093238;28;20024;-58
2021/06/25 07:05:10;;;;;;;0.80;0.50;;;;;;;;;;5093235;28;20203;-58
2021/06/25 07:07:36;;;;;;;0.98;0.57;;;;;;;;;;5093055;28;20030;-58
2021/06/25 07:10:03;;;;;;;1.65;0.90;;;;;;;;;;5095070;28;20138;-58
2021/06/25 07:12:29;;;;;;;1.88;1.02;;;;;;;;;;5097096;28;20028;-58
2021/06/25 07:14:55;;;;;;;1.63;0.85;;;;;;;;;;5096894;28;20038;-58
2021/06/25 07:17:21;;;;;;;1.73;0.77;;;;;;;;;;5096628;28;20032;-58
2021/06/25 07:19:48;;;;;;;2.00;0.90;;;;;;;;;;5096883;28;20036;-58
2021/06/25 07:22:14;;;;;;;1.73;0.73;;;;;;;;;;5096627;28;20020;-58
2021/06/25 07:24:40;;;;;;;1.20;0.70;;;;;;;;;;5096922;28;20032;-58
2021/06/25 07:27:07;;;;;;;1.00;0.50;;;;;;;;;;5096865;28;20024;-58
2021/06/25 07:29:33;;;;;;;1.35;0.70;;;;;;;;;;5096546;28;20438;-58
2021/06/25 07:31:59;;;;;;;0.90;0.43;;;;;;;;;;5096553;28;20453;-58
2021/06/25 07:34:25;;;;;;;4.88;1.23;;;;;;;;;;5096492;28;20020;-58
2021/06/25 07:36:51;;;;;;;1.88;0.80;;;;;;;;;;5096116;28;20452;-58
2021/06/25 07:39:17;;;;;;;1.35;0.82;;;;;;;;;;5096392;28;20026;-58
2021/06/25 07:41:43;;;;;;;2.05;1.08;;;;;;;;;;5096398;28;20016;-58
2021/06/25 07:44:10;;;;;;;1.60;0.90;;;;;;;;;;5096798;28;20032;-58
2021/06/25 07:46:38;;;;;;;2.50;1.60;;;;;;;;;;5096181;28;20027;-59
2021/06/25 07:49:04;;;;;;;2.67;1.67;;;;;;;;;;5096810;28;20031;-59
2021/06/25 07:51:30;;;;;;;1.77;1.27;;;;;;;;;;5095901;28;20027;-59
2021/06/25 07:53:56;;;;;;;2.80;2.15;;;;;;;;;;5096392;28;20110;-58
2021/06/25 07:56:22;;;;;;;3.17;2.25;;;;;;;;;;5094854;28;20039;-59
2021/06/25 07:58:49;;;;;;;2.63;2.00;;;;;;;;;;5096071;28;20028;-58
2021/06/25 08:01:15;;;;;;;2.83;2.03;;;;;;;;;;5095937;28;20069;-58
2021/06/25 08:03:41;;;;;;;3.38;2.13;;;;;;;;;;5096342;28;20039;-58
2021/06/25 08:06:07;;;;;;;4.28;2.55;;;;;;;;;;5095948;28;20024;-58
2021/06/25 08:08:38;;;;;;;4.07;2.80;;;;;;;;;;5095956;28;20040;-59
2021/06/25 08:11:07;;;;;;;5.35;2.67;;;;;;;;;;5095711;28;20466;-58
2021/06/25 08:13:34;;;;;;;5.03;2.17;;;;;;;;;;5095695;28;20024;-58
2021/06/25 08:16:00;;;;;;;3.83;3.05;;;;;;;;;;5094940;28;20031;-58
2021/06/25 08:18:26;;;;;;;4.72;2.78;;;;;;;;;;5095892;28;20062;-58
2021/06/25 08:20:54;;;;;;;3.75;2.67;;;;;;;;;;5095745;28;20032;-58
2021/06/25 08:23:20;;;;;;;6.25;3.15;;;;;;;;;;5095530;28;20036;-59
2021/06/25 08:25:46;;;;;;;4.82;3.22;;;;;;;;;;5095966;28;20039;-58
2021/06/25 08:28:13;;;;;;;4.68;3.05;;;;;;;;;;5095418;28;20031;-58
2021/06/25 08:30:39;;;;;;;4.95;3.85;;;;;;;;;;5095017;28;20028;-58
2021/06/25 08:33:05;;;;;;;4.13;3.05;;;;;;;;;;5095582;28;20024;-58
2021/06/25 08:35:31;;;;;;;3.40;2.88;;;;;;;;;;5095517;28;20043;-58
2021/06/25 08:37:57;;;;;;;6.93;3.65;;;;;;;;;;5095233;28;20047;-59
2021/06/25 08:40:23;;;;;;;4.60;3.30;;;;;;;;;;5095746;28;20165;-58
2021/06/25 08:42:49;;;;;;;5.53;3.13;;;;;;;;;;5095513;28;20020;-58
2021/06/25 08:45:16;;;;;;;2.95;2.55;;;;;;;;;;5093848;28;20053;-58
2021/06/25 08:47:43;;;;;;;3.17;2.42;;;;;;;;;;5095043;28;20028;-58
2021/06/25 08:50:12;;;;;;;3.90;2.53;;;;;;;;;;5094168;28;20363;-58
2021/06/25 08:52:39;;;;;;;7.28;5.40;;;;;;;;;;5094976;28;20016;-58
2021/06/25 08:55:07;;;;;;;7.43;2.88;;;;;;;;;;5094798;28;20028;-58
2021/06/25 08:57:34;;;;;;;3.60;2.63;;;;;;;;;;5094805;28;20045;-58
2021/06/25 09:00:00;;;;;;;4.30;3.00;;;;;;;;;;5094433;28;20582;-58
2021/06/25 09:02:31;;;;;;;4.40;2.40;;;;;;;;;;5094033;28;20024;-58
2021/06/25 09:04:57;;;;;;;4.25;2.75;;;;;;;;;;5095675;28;20038;-58
2021/06/25 09:07:38;;;;;;;4.25;3.28;;;;;;;;;;5094644;28;20024;-58
2021/06/25 09:10:05;;;;;;;2.88;2.45;;;;;;;;;;5095112;28;20385;-58
2021/06/25 09:12:31;;;;;;;2.70;2.30;;;;;;;;;;5093762;28;20024;-58
2021/06/25 09:14:58;;;;;;;3.70;2.90;;;;;;;;;;5094546;28;20051;-58
2021/06/25 09:17:24;;;;;;;3.70;2.95;;;;;;;;;;5094497;28;20462;-58
2021/06/25 09:19:50;;;;;;;4.32;2.92;;;;;;;;;;5094512;28;20047;-58
2021/06/25 09:22:16;;;;;;;4.03;3.47;;;;;;;;;;5094409;28;20020;-58
2021/06/25 09:24:42;;;;;;;4.15;3.35;;;;;;;;;;5094499;28;20039;-58
2021/06/25 09:27:09;;;;;;;4.93;4.00;;;;;;;;;;5094382;28;20016;-58
2021/06/25 09:29:38;;;;;;;5.45;4.15;;;;;;;;;;5094369;28;20020;-58
2021/06/25 09:32:06;;;;;;;5.70;5.05;;;;;;;;;;5094451;28;20081;-58
2021/06/25 09:34:35;;;;;;;5.22;4.45;;;;;;;;;;5093971;28;20024;-58
2021/06/25 09:37:04;;;;;;;8.30;4.13;;;;;;;;;;5094067;28;20036;-58
2021/06/25 09:39:30;;;;;;;6.18;5.10;;;;;;;;;;5094608;28;20078;-58
2021/06/25 09:41:56;;;;;;;8.02;5.13;;;;;;;;;;5094436;28;20390;-58
2021/06/25 09:44:24;;;;;;;6.05;4.60;;;;;;;;;;5094063;28;20435;-58
2021/06/25 09:46:54;;;;;;;6.18;5.18;;;;;;;;;;5094110;28;20016;-58
2021/06/25 09:49:33;;;;;;;5.93;5.32;;;;;;;;;;5093952;28;20124;-58
2021/06/25 09:52:01;;;;;;;7.18;4.97;;;;;;;;;;5094619;28;20488;-58
2021/06/25 09:54:28;;;;;;;6.32;4.88;;;;;;;;;;5093734;28;20020;-58
2021/06/25 09:57:10;;;;;;;5.88;4.93;;;;;;;;;;5093861;28;20062;-58
2021/06/25 10:02:21;;;;;;;5.80;4.35;;;;;;;;;;5093950;28;20020;-58
2021/06/25 10:04:47;;;;;;;5.50;4.82;;;;;;;;;;5093927;28;20467;-58
2021/06/25 10:07:15;;;;;;;5.55;4.80;;;;;;;;;;5094017;28;20054;-58
2021/06/25 10:09:47;;;;;;;6.40;4.70;;;;;;;;;;5093446;28;20059;-58
2021/06/25 10:12:15;;;;;;;5.38;4.63;;;;;;;;;;5093827;28;20086;-58
2021/06/25 10:14:42;;;;;;;5.82;4.50;;;;;;;;;;5093595;28;20035;-58
2021/06/25 10:17:09;;;;;;;5.55;4.22;;;;;;;;;;5093998;28;20028;-58
2021/06/25 10:19:37;;;;;;;7.47;5.13;;;;;;;;;;5093684;28;20108;-59
2021/06/25 10:22:04;;;;;;;7.03;5.50;;;;;;;;;;5094044;28;20059;-58
2021/06/25 10:24:31;;;;;;;6.40;5.63;;;;;;;;;;5093949;28;20035;-58
2021/06/25 10:26:58;;;;;;;6.43;5.72;;;;;;;;;;5093613;28;20032;-59
2021/06/25 10:29:24;;;;;;;6.25;5.20;;;;;;;;;;5093567;28;20066;-58
2021/06/25 10:31:51;;;;;;;6.68;5.70;;;;;;;;;;5093796;28;20385;-58
2021/06/25 10:34:20;;;;;;;8.60;6.10;;;;;;;;;;5093817;28;20029;-58
2021/06/25 10:36:48;;;;;;;5.93;5.25;;;;;;;;;;5093576;28;20454;-58
2021/06/25 10:39:15;;;;;;;8.32;5.78;;;;;;;;;;5093549;28;20501;-58
2021/06/25 10:41:48;;;;;;;7.13;6.43;;;;;;;;;;5094293;28;20396;-58
2021/06/25 10:44:34;;;;;;;8.23;6.95;;;;;;;;;;5093604;28;20036;-58
2021/06/25 10:47:19;;;;;;;8.35;5.70;;;;;;;;;;5098231;28;20098;-58
2021/06/25 10:50:06;;;;;;;6.93;6.22;;;;;;;;;;5097321;28;20027;-58
2021/06/25 10:52:32;;;;;;;6.90;5.35;;;;;;;;;;5097647;28;20020;-58
2021/06/25 10:55:18;;;;;;;8.00;5.72;;;;;;;;;;5096992;28;20140;-58
2021/06/25 10:57:50;;;;;;;8.07;5.78;;;;;;;;;;5096389;28;20354;-58
2021/06/25 11:00:35;;;;;;;7.70;5.90;;;;;;;;;;5097036;28;20457;-58
2021/06/25 11:03:01;;;;;;;6.65;6.03;;;;;;;;;;5097179;28;20063;-58
2021/06/25 11:05:27;;;;;;;7.47;5.78;;;;;;;;;;5097532;28;20551;-58
2021/06/25 11:07:54;;;;;;;8.63;5.85;;;;;;;;;;5097086;28;20093;-58
2021/06/25 11:10:24;;;;;;;6.85;6.15;;;;;;;;;;5097176;28;20048;-59
2021/06/25 11:12:51;;;;;;;7.68;6.68;;;;;;;;;;5096035;28;20384;-58
2021/06/25 11:15:30;;;;;;;7.10;6.03;;;;;;;;;;5096700;28;20028;-58
2021/06/25 11:17:58;;;;;;;8.75;6.95;;;;;;;;;;5096707;28;20082;-58
2021/06/25 11:20:34;;;;;;;8.40;6.20;;;;;;;;;;5096606;28;20021;-58
2021/06/25 11:23:05;;;;;;;7.30;6.18;;;;;;;;;;5096877;28;20024;-58
2021/06/25 11:25:41;;;;;;;7.75;6.57;;;;;;;;;;5096668;28;20036;-58
2021/06/25 11:28:11;;;;;;;8.00;6.60;;;;;;;;;;5096321;28;20028;-58
2021/06/25 11:31:00;;;;;;;8.82;7.10;;;;;;;;;;5095210;28;20036;-58
2021/06/25 11:33:29;;;;;;;8.23;6.82;;;;;;;;;;5087958;28;20044;-58
2021/06/25 11:36:15;;;;;;;8.38;7.55;;;;;;;;;;5096338;28;20024;-58
2021/06/25 11:38:54;;;;;;;11.82;6.70;;;;;;;;;;5095940;28;20032;-58
2021/06/25 11:41:27;;;;;;;9.60;7.45;;;;;;;;;;5096098;28;20093;-58
2021/06/25 11:43:57;;;;;;;8.77;6.40;;;;;;;;;;5096170;28;20512;-58
2021/06/25 11:46:23;;;;;;;10.57;8.98;;;;;;;;;;5096340;28;20453;-58
2021/06/25 11:48:50;;;;;;;9.00;7.53;;;;;;;;;;5095935;28;20020;-58
2021/06/25 11:51:18;;;;;;;12.25;7.72;;;;;;;;;;5096408;28;20157;-58
2021/06/25 11:53:47;;;;;;;11.80;8.18;;;;;;;;;;5096092;28;20471;-58
2021/06/25 11:56:17;;;;;;;8.07;7.10;;;;;;;;;;5093793;28;20033;-58
2021/06/25 11:58:53;;;;;;;12.45;10.10;;;;;;;;;;5096434;28;20393;-58
2021/06/25 12:01:19;;;;;;;16.75;10.13;;;;;;;;;;5095590;28;20024;-58
2021/06/25 12:03:45;;;;;;;10.93;8.77;;;;;;;;;;5096214;28;20039;-58
2021/06/25 12:06:11;;;;;;;9.40;7.97;;;;;;;;;;5096033;28;20020;-58
2021/06/25 12:09:11;;;;;;;11.70;9.80;;;;;;;;;;5095399;28;20055;-58
2021/06/25 12:11:37;;;;;;;11.65;8.18;;;;;;;;;;5061672;28;20043;-58
2021/06/25 12:14:04;;;;;;;9.43;7.57;;;;;;;;;;5095480;28;20056;-58
2021/06/25 12:16:31;;;;;;;8.38;7.57;;;;;;;;;;5095349;28;20032;-58
2021/06/25 12:18:57;;;;;;;9.55;6.47;;;;;;;;;;5095413;28;20035;-58
2021/06/25 12:21:23;;;;;;;10.45;7.35;;;;;;;;;;5095587;28;20035;-59
2021/06/25 12:23:51;;;;;;;9.80;6.55;;;;;;;;;;5095333;28;20024;-58
2021/06/25 12:26:19;;;;;;;8.45;7.55;;;;;;;;;;5096041;28;20020;-58
2021/06/25 12:28:48;;;;;;;9.88;7.20;;;;;;;;;;5095730;28;20119;-58
2021/06/25 12:31:19;;;;;;;7.60;5.90;;;;;;;;;;5095243;28;20024;-58
2021/06/25 12:33:45;;;;;;;7.75;5.60;;;;;;;;;;5095165;28;20028;-58
2021/06/25 12:36:13;;;;;;;6.60;5.25;;;;;;;;;;5095269;28;20061;-58
2021/06/25 12:38:40;;;;;;;6.78;5.85;;;;;;;;;;5095594;28;20028;-58
2021/06/25 12:41:09;;;;;;;8.85;6.30;;;;;;;;;;5095890;28;20128;-58
2021/06/25 12:43:39;;;;;;;7.47;5.28;;;;;;;;;;5095220;28;20028;-58
2021/06/25 12:46:06;;;;;;;6.15;5.55;;;;;;;;;;5095278;28;20027;-58
2021/06/25 12:48:33;;;;;;;5.75;4.55;;;;;;;;;;5095403;28;20056;-59
2021/06/25 12:51:04;;;;;;;6.45;4.53;;;;;;;;;;5095512;28;20027;-58
2021/06/25 12:53:30;;;;;;;;;;;;;;;;;;5095457;28;20047;-58
2021/06/25 12:55:57;;;;;;;4.43;3.90;;;;;;;;;;5095355;28;19908;-58
2021/06/25 12:58:24;;;;;;;5.78;4.78;;;;;;;;;;5095331;28;20031;-59
2021/06/25 13:00:57;;;;;;;5.00;4.28;;;;;;;;;;5095004;28;20020;-59
2021/06/25 13:03:23;;;;;;;4.85;4.35;;;;;;;;;;5095219;28;20103;-59
2021/06/25 13:05:49;;;;;;;4.75;4.20;;;;;;;;;;5094856;28;20028;-59
2021/06/25 13:08:16;;;;;;;5.38;4.20;;;;;;;;;;5093500;28;20043;-59
2021/06/25 13:10:43;;;;;;;5.47;3.88;;;;;;;;;;5095341;28;20209;-58
2021/06/25 13:13:16;;;;;;;5.43;4.90;;;;;;;;;;5095460;28;20020;-58
2021/06/25 13:15:50;;;;;;;4.88;4.07;;;;;;;;;;5095123;28;20047;-58
2021/06/25 13:18:19;;;;;;;6.10;4.95;;;;;;;;;;5095140;28;20069;-58
2021/06/25 13:21:05;;;;;;;4.97;4.47;;;;;;;;;;5095095;28;20135;-59
2021/06/25 13:23:32;;;;;;;5.82;5.22;;;;;;;;;;5094718;28;20036;-58
2021/06/25 13:26:08;;;;;;;7.53;5.10;;;;;;;;;;5093313;28;20334;-58
2021/06/25 13:28:34;;;;;;;6.90;5.90;;;;;;;;;;5094879;28;20408;-59
2021/06/25 13:31:07;;;;;;;5.13;4.63;;;;;;;;;;5094382;28;20024;-58
2021/06/25 13:33:40;;;;;;;5.80;4.45;;;;;;;;;;5094744;28;20036;-58
2021/06/25 13:36:07;;;;;;;6.50;4.63;;;;;;;;;;5094295;28;20457;-59
2021/06/25 13:38:33;;;;;;;6.45;5.40;;;;;;;;;;5094338;28;20035;-59
2021/06/25 13:41:02;;;;;;;5.60;4.93;;;;;;;;;;5094521;28;20027;-59
2021/06/25 13:43:28;;;;;;;6.80;4.97;;;;;;;;;;5094123;28;20103;-59
2021/06/25 13:46:07;;;;;;;6.60;4.88;;;;;;;;;;5094125;28;20016;-59
2021/06/25 13:48:34;;;;;;;5.65;4.60;;;;;;;;;;5094181;28;20066;-59
2021/06/25 13:51:02;;;;;;;4.57;4.10;;;;;;;;;;5093822;28;20110;-59
2021/06/25 13:53:35;;;;;;;4.47;3.97;;;;;;;;;;5093918;28;20365;-59
2021/06/25 13:56:09;;;;;;;4.72;4.22;;;;;;;;;;5093640;28;20485;-59
2021/06/25 13:58:51;;;;;;;4.93;4.07;;;;;;;;;;5094009;28;20366;-59
2021/06/25 14:01:22;;;;;;;4.18;3.50;;;;;;;;;;5093835;28;20386;-59
2021/06/25 14:04:08;;;;;;;7.20;4.13;;;;;;;;;;5094217;28;20058;-59
2021/06/25 14:06:36;;;;;;;5.63;4.57;;;;;;;;;;5094530;28;20486;-59
2021/06/25 14:09:03;;;;;;;4.47;3.97;;;;;;;;;;5093602;28;20090;-58
2021/06/25 14:11:30;;;;;;;6.45;4.57;;;;;;;;;;5094128;28;20048;-58
2021/06/25 14:14:04;;;;;;;5.47;4.60;;;;;;;;;;5093703;28;20535;-59
2021/06/25 14:16:30;;;;;;;5.43;4.28;;;;;;;;;;5094390;28;20032;-59
2021/06/25 14:18:57;;;;;;;4.85;3.55;;;;;;;;;;5095344;28;20411;-59
2021/06/25 14:21:25;;;;;;;4.63;3.90;;;;;;;;;;5098254;28;20504;-59
2021/06/25 14:23:51;;;;;;;5.20;4.00;;;;;;;;;;5097924;28;20465;-59
2021/06/25 14:26:17;;;;;;;4.55;3.90;;;;;;;;;;5098457;28;20032;-59
2021/06/25 14:28:43;;;;;;;4.78;4.00;;;;;;;;;;5097437;28;20030;-59
2021/06/25 14:31:09;;;;;;;5.10;4.05;;;;;;;;;;5097872;28;20053;-60
2021/06/25 14:33:36;;;;;;;5.18;4.30;;;;;;;;;;5098301;28;20138;-59
2021/06/25 14:36:02;;;;;;;6.75;3.53;;;;;;;;;;5097880;28;20020;-59
2021/06/25 14:38:28;;;;;;;4.97;3.85;;;;;;;;;;5097826;28;20020;-59
2021/06/25 14:40:55;;;;;;;4.60;3.83;;;;;;;;;;5098328;28;20133;-59
2021/06/25 14:43:22;;;;;;;5.55;4.75;;;;;;;;;;5097642;28;20453;-59
2021/06/25 14:45:49;;;;;;;4.88;4.38;;;;;;;;;;5098210;28;20347;-59
2021/06/25 14:48:18;;;;;;;6.32;4.78;;;;;;;;;;5098027;28;20347;-59
2021/06/25 14:50:46;;;;;;;7.10;4.60;;;;;;;;;;5098000;28;20099;-59
2021/06/25 14:53:13;;;;;;;7.13;5.15;;;;;;;;;;5097234;28;20051;-59
2021/06/25 14:55:39;;;;;;;5.72;4.70;;;;;;;;;;5097925;28;20039;-59
2021/06/25 14:58:09;;;;;;;5.72;5.07;;;;;;;;;;5097338;28;20370;-59
2021/06/25 15:00:36;;;;;;;8.02;4.97;;;;;;;;;;5097445;28;20050;-59
2021/06/25 15:03:02;;;;;;;6.00;3.75;;;;;;;;;;5096350;28;20020;-59
2021/06/25 15:05:29;;;;;;;4.40;3.90;;;;;;;;;;5097220;28;20031;-59